sensor_id;sensor_type;location;lat;lon;timestamp;P1;durP1;ratioP1;P2;durP2;ratioP2
74342;SDS011;62767;50.300;8.070;2023-11-18T00:03:46;2.78;;;1.58;;
74342;SDS011;62767;50.300;8.070;2023-11-18T00:06:12;3.45;;;1.75;;
74342;SDS011;62767;50.300;8.070;2023-11-18T00:08:38;2.88;;;1.80;;
74342;SDS011;62767;50.300;8.070;2023-11-18T00:11:03;3.72;;;1.90;;
74342;SDS011;62767;50.300;8.070;2023-11-18T00:13:29;4.05;;;2.20;;
74342;SDS011;62767;50.300;8.070;2023-11-18T00:15:55;3.42;;;1.90;;
74342;SDS011;62767;50.300;8.070;2023-11-18T00:18:21;3.65;;;2.00;;
74342;SDS011;62767;50.300;8.070;2023-11-18T00:20:47;3.22;;;1.88;;
74342;SDS011;62767;50.300;8.070;2023-11-18T00:23:14;3.15;;;1.90;;
74342;SDS011;62767;50.300;8.070;2023-11-18T00:25:40;3.00;;;1.73;;
74342;SDS011;62767;50.300;8.070;2023-11-18T00:28:06;2.97;;;1.73;;
74342;SDS011;62767;50.300;8.070;2023-11-18T00:30:33;2.95;;;1.65;;
74342;SDS011;62767;50.300;8.070;2023-11-18T00:32:59;3.40;;;1.95;;
74342;SDS011;62767;50.300;8.070;2023-11-18T00:35:25;3.38;;;1.83;;
74342;SDS011;62767;50.300;8.070;2023-11-18T00:37:51;3.30;;;1.85;;
74342;SDS011;62767;50.300;8.070;2023-11-18T00:40:17;2.97;;;1.67;;
74342;SDS011;62767;50.300;8.070;2023-11-18T00:42:45;3.60;;;1.73;;
74342;SDS011;62767;50.300;8.070;2023-11-18T00:45:11;3.25;;;1.60;;
74342;SDS011;62767;50.300;8.070;2023-11-18T00:47:38;2.72;;;1.65;;
74342;SDS011;62767;50.300;8.070;2023-11-18T00:50:06;2.88;;;1.65;;
74342;SDS011;62767;50.300;8.070;2023-11-18T00:52:34;3.08;;;1.58;;
74342;SDS011;62767;50.300;8.070;2023-11-18T00:55:00;2.80;;;1.63;;
74342;SDS011;62767;50.300;8.070;2023-11-18T00:57:26;2.60;;;1.60;;
74342;SDS011;62767;50.300;8.070;2023-11-18T00:59:52;2.80;;;1.60;;
74342;SDS011;62767;50.300;8.070;2023-11-18T01:02:18;3.03;;;1.60;;
74342;SDS011;62767;50.300;8.070;2023-11-18T01:04:44;3.58;;;1.60;;
74342;SDS011;62767;50.300;8.070;2023-11-18T01:07:14;3.05;;;1.60;;
74342;SDS011;62767;50.300;8.070;2023-11-18T01:09:39;2.10;;;1.48;;
74342;SDS011;62767;50.300;8.070;2023-11-18T01:12:05;3.53;;;1.83;;
74342;SDS011;62767;50.300;8.070;2023-11-18T01:14:38;3.28;;;1.77;;
74342;SDS011;62767;50.300;8.070;2023-11-18T01:17:05;3.03;;;1.70;;
74342;SDS011;62767;50.300;8.070;2023-11-18T01:19:32;2.67;;;1.65;;
74342;SDS011;62767;50.300;8.070;2023-11-18T01:21:59;2.28;;;1.45;;
74342;SDS011;62767;50.300;8.070;2023-11-18T01:24:25;2.92;;;1.65;;
74342;SDS011;62767;50.300;8.070;2023-11-18T01:26:50;2.47;;;1.55;;
74342;SDS011;62767;50.300;8.070;2023-11-18T01:29:16;2.95;;;1.70;;
74342;SDS011;62767;50.300;8.070;2023-11-18T01:31:42;2.53;;;1.52;;
74342;SDS011;62767;50.300;8.070;2023-11-18T01:34:09;3.45;;;1.65;;
74342;SDS011;62767;50.300;8.070;2023-11-18T01:36:34;3.47;;;1.70;;
74342;SDS011;62767;50.300;8.070;2023-11-18T01:39:00;3.00;;;1.60;;
74342;SDS011;62767;50.300;8.070;2023-11-18T01:41:26;2.65;;;1.40;;
74342;SDS011;62767;50.300;8.070;2023-11-18T01:43:51;2.38;;;1.38;;
74342;SDS011;62767;50.300;8.070;2023-11-18T01:48:45;2.55;;;1.40;;
74342;SDS011;62767;50.300;8.070;2023-11-18T01:51:11;2.10;;;1.27;;
74342;SDS011;62767;50.300;8.070;2023-11-18T01:53:37;2.20;;;1.48;;
74342;SDS011;62767;50.300;8.070;2023-11-18T01:56:05;2.28;;;1.40;;
74342;SDS011;62767;50.300;8.070;2023-11-18T01:58:35;2.45;;;1.50;;
74342;SDS011;62767;50.300;8.070;2023-11-18T02:01:04;2.50;;;1.48;;
74342;SDS011;62767;50.300;8.070;2023-11-18T02:03:33;3.03;;;1.40;;
74342;SDS011;62767;50.300;8.070;2023-11-18T02:06:00;2.40;;;1.50;;
74342;SDS011;62767;50.300;8.070;2023-11-18T02:08:26;2.45;;;1.50;;
74342;SDS011;62767;50.300;8.070;2023-11-18T02:13:56;2.13;;;1.38;;
74342;SDS011;62767;50.300;8.070;2023-11-18T02:16:28;1.63;;;1.10;;
74342;SDS011;62767;50.300;8.070;2023-11-18T02:18:54;2.50;;;1.38;;
74342;SDS011;62767;50.300;8.070;2023-11-18T02:21:20;2.55;;;1.38;;
74342;SDS011;62767;50.300;8.070;2023-11-18T02:23:48;2.40;;;1.50;;
74342;SDS011;62767;50.300;8.070;2023-11-18T02:26:22;2.25;;;1.40;;
74342;SDS011;62767;50.300;8.070;2023-11-18T02:28:48;1.75;;;1.05;;
74342;SDS011;62767;50.300;8.070;2023-11-18T02:31:20;2.45;;;1.27;;
74342;SDS011;62767;50.300;8.070;2023-11-18T02:33:59;2.00;;;1.33;;
74342;SDS011;62767;50.300;8.070;2023-11-18T02:36:35;2.42;;;1.20;;
74342;SDS011;62767;50.300;8.070;2023-11-18T02:39:11;2.35;;;1.20;;
74342;SDS011;62767;50.300;8.070;2023-11-18T02:41:43;1.85;;;1.08;;
74342;SDS011;62767;50.300;8.070;2023-11-18T02:44:12;2.03;;;1.30;;
74342;SDS011;62767;50.300;8.070;2023-11-18T02:46:43;2.00;;;1.10;;
74342;SDS011;62767;50.300;8.070;2023-11-18T02:49:09;1.50;;;1.10;;
74342;SDS011;62767;50.300;8.070;2023-11-18T02:51:36;2.30;;;1.15;;
74342;SDS011;62767;50.300;8.070;2023-11-18T02:54:08;2.08;;;1.23;;
74342;SDS011;62767;50.300;8.070;2023-11-18T02:56:36;1.77;;;1.10;;
74342;SDS011;62767;50.300;8.070;2023-11-18T02:59:02;2.08;;;1.30;;
74342;SDS011;62767;50.300;8.070;2023-11-18T03:01:33;1.80;;;1.10;;
74342;SDS011;62767;50.300;8.070;2023-11-18T03:03:59;1.77;;;1.10;;
74342;SDS011;62767;50.300;8.070;2023-11-18T03:06:30;1.63;;;1.20;;
74342;SDS011;62767;50.300;8.070;2023-11-18T03:08:57;1.83;;;1.00;;
74342;SDS011;62767;50.300;8.070;2023-11-18T03:11:23;1.70;;;1.10;;
74342;SDS011;62767;50.300;8.070;2023-11-18T03:13:49;1.88;;;1.23;;
74342;SDS011;62767;50.300;8.070;2023-11-18T03:16:15;1.50;;;1.02;;
74342;SDS011;62767;50.300;8.070;2023-11-18T03:18:42;1.23;;;0.98;;
74342;SDS011;62767;50.300;8.070;2023-11-18T03:21:14;2.00;;;1.02;;
74342;SDS011;62767;50.300;8.070;2023-11-18T03:23:40;1.52;;;1.05;;
74342;SDS011;62767;50.300;8.070;2023-11-18T03:26:07;1.80;;;1.08;;
74342;SDS011;62767;50.300;8.070;2023-11-18T03:28:33;2.63;;;1.45;;
74342;SDS011;62767;50.300;8.070;2023-11-18T03:30:59;2.10;;;1.10;;
74342;SDS011;62767;50.300;8.070;2023-11-18T03:33:24;1.67;;;1.00;;
74342;SDS011;62767;50.300;8.070;2023-11-18T03:35:50;1.48;;;0.95;;
74342;SDS011;62767;50.300;8.070;2023-11-18T03:38:16;1.33;;;0.90;;
74342;SDS011;62767;50.300;8.070;2023-11-18T03:40:45;1.58;;;0.93;;
74342;SDS011;62767;50.300;8.070;2023-11-18T03:43:11;1.20;;;0.90;;
74342;SDS011;62767;50.300;8.070;2023-11-18T03:50:30;1.77;;;1.00;;
74342;SDS011;62767;50.300;8.070;2023-11-18T03:52:55;1.67;;;1.08;;
74342;SDS011;62767;50.300;8.070;2023-11-18T03:55:21;1.60;;;0.98;;
74342;SDS011;62767;50.300;8.070;2023-11-18T03:57:47;1.35;;;0.95;;
74342;SDS011;62767;50.300;8.070;2023-11-18T04:00:15;2.45;;;1.42;;
74342;SDS011;62767;50.300;8.070;2023-11-18T04:02:41;1.10;;;0.90;;
74342;SDS011;62767;50.300;8.070;2023-11-18T04:05:06;1.45;;;0.85;;
74342;SDS011;62767;50.300;8.070;2023-11-18T04:07:33;1.35;;;0.88;;
74342;SDS011;62767;50.300;8.070;2023-11-18T04:09:59;1.52;;;0.90;;
74342;SDS011;62767;50.300;8.070;2023-11-18T04:12:25;1.67;;;1.02;;
74342;SDS011;62767;50.300;8.070;2023-11-18T04:14:52;1.23;;;1.00;;
74342;SDS011;62767;50.300;8.070;2023-11-18T04:17:18;1.50;;;1.00;;
74342;SDS011;62767;50.300;8.070;2023-11-18T04:19:44;1.75;;;1.02;;
74342;SDS011;62767;50.300;8.070;2023-11-18T04:22:10;1.60;;;1.00;;
74342;SDS011;62767;50.300;8.070;2023-11-18T04:24:36;1.40;;;0.90;;
74342;SDS011;62767;50.300;8.070;2023-11-18T04:27:02;1.35;;;1.08;;
74342;SDS011;62767;50.300;8.070;2023-11-18T04:29:28;1.17;;;0.93;;
74342;SDS011;62767;50.300;8.070;2023-11-18T04:31:54;1.50;;;1.02;;
74342;SDS011;62767;50.300;8.070;2023-11-18T04:34:19;1.10;;;0.73;;
74342;SDS011;62767;50.300;8.070;2023-11-18T04:36:45;1.95;;;1.00;;
74342;SDS011;62767;50.300;8.070;2023-11-18T04:39:11;1.27;;;0.90;;
74342;SDS011;62767;50.300;8.070;2023-11-18T04:41:37;1.90;;;1.10;;
74342;SDS011;62767;50.300;8.070;2023-11-18T04:44:05;2.08;;;1.08;;
74342;SDS011;62767;50.300;8.070;2023-11-18T04:46:30;1.35;;;0.90;;
74342;SDS011;62767;50.300;8.070;2023-11-18T04:48:56;1.58;;;0.90;;
74342;SDS011;62767;50.300;8.070;2023-11-18T04:51:21;1.05;;;0.90;;
74342;SDS011;62767;50.300;8.070;2023-11-18T04:53:50;1.08;;;0.90;;
74342;SDS011;62767;50.300;8.070;2023-11-18T04:56:16;1.33;;;0.95;;
74342;SDS011;62767;50.300;8.070;2023-11-18T04:58:43;1.73;;;1.00;;
74342;SDS011;62767;50.300;8.070;2023-11-18T05:01:12;1.23;;;0.90;;
74342;SDS011;62767;50.300;8.070;2023-11-18T05:08:30;1.27;;;0.88;;
74342;SDS011;62767;50.300;8.070;2023-11-18T05:10:57;1.20;;;0.77;;
74342;SDS011;62767;50.300;8.070;2023-11-18T05:13:23;1.35;;;0.85;;
74342;SDS011;62767;50.300;8.070;2023-11-18T05:15:48;1.15;;;0.88;;
74342;SDS011;62767;50.300;8.070;2023-11-18T05:18:15;1.77;;;0.90;;
74342;SDS011;62767;50.300;8.070;2023-11-18T05:20:41;1.20;;;0.80;;
74342;SDS011;62767;50.300;8.070;2023-11-18T05:23:08;0.90;;;0.80;;
74342;SDS011;62767;50.300;8.070;2023-11-18T05:25:38;1.00;;;0.70;;
74342;SDS011;62767;50.300;8.070;2023-11-18T05:28:05;0.73;;;0.60;;
74342;SDS011;62767;50.300;8.070;2023-11-18T05:30:34;1.17;;;0.75;;
74342;SDS011;62767;50.300;8.070;2023-11-18T05:33:06;1.30;;;0.80;;
74342;SDS011;62767;50.300;8.070;2023-11-18T05:35:32;1.05;;;0.77;;
74342;SDS011;62767;50.300;8.070;2023-11-18T05:37:58;1.40;;;0.82;;
74342;SDS011;62767;50.300;8.070;2023-11-18T05:40:25;0.75;;;0.70;;
74342;SDS011;62767;50.300;8.070;2023-11-18T05:42:52;1.27;;;0.90;;
74342;SDS011;62767;50.300;8.070;2023-11-18T05:45:20;1.40;;;0.80;;
74342;SDS011;62767;50.300;8.070;2023-11-18T05:48:01;0.90;;;0.82;;
74342;SDS011;62767;50.300;8.070;2023-11-18T05:50:28;0.90;;;0.70;;
74342;SDS011;62767;50.300;8.070;2023-11-18T05:52:54;0.82;;;0.70;;
74342;SDS011;62767;50.300;8.070;2023-11-18T05:55:20;1.10;;;0.80;;
74342;SDS011;62767;50.300;8.070;2023-11-18T05:57:46;0.85;;;0.75;;
74342;SDS011;62767;50.300;8.070;2023-11-18T06:00:12;1.60;;;1.00;;
74342;SDS011;62767;50.300;8.070;2023-11-18T06:02:41;1.13;;;0.82;;
74342;SDS011;62767;50.300;8.070;2023-11-18T06:05:07;0.90;;;0.88;;
74342;SDS011;62767;50.300;8.070;2023-11-18T06:07:34;1.40;;;0.82;;
74342;SDS011;62767;50.300;8.070;2023-11-18T06:10:00;1.45;;;0.90;;
74342;SDS011;62767;50.300;8.070;2023-11-18T06:12:30;0.93;;;0.77;;
74342;SDS011;62767;50.300;8.070;2023-11-18T06:14:57;1.05;;;0.80;;
74342;SDS011;62767;50.300;8.070;2023-11-18T06:17:22;1.05;;;0.80;;
74342;SDS011;62767;50.300;8.070;2023-11-18T06:19:48;1.10;;;0.80;;
74342;SDS011;62767;50.300;8.070;2023-11-18T06:22:14;0.73;;;0.70;;
74342;SDS011;62767;50.300;8.070;2023-11-18T06:24:40;0.80;;;0.70;;
74342;SDS011;62767;50.300;8.070;2023-11-18T06:27:06;1.38;;;0.77;;
74342;SDS011;62767;50.300;8.070;2023-11-18T06:29:34;1.15;;;0.90;;
74342;SDS011;62767;50.300;8.070;2023-11-18T06:31:59;0.98;;;0.77;;
74342;SDS011;62767;50.300;8.070;2023-11-18T06:34:25;0.98;;;0.70;;
74342;SDS011;62767;50.300;8.070;2023-11-18T06:36:52;1.65;;;0.80;;
74342;SDS011;62767;50.300;8.070;2023-11-18T06:39:18;0.88;;;0.70;;
74342;SDS011;62767;50.300;8.070;2023-11-18T06:41:46;0.68;;;0.63;;
74342;SDS011;62767;50.300;8.070;2023-11-18T06:44:16;1.15;;;0.70;;
74342;SDS011;62767;50.300;8.070;2023-11-18T06:46:43;0.77;;;0.57;;
74342;SDS011;62767;50.300;8.070;2023-11-18T06:49:09;0.80;;;0.73;;
74342;SDS011;62767;50.300;8.070;2023-11-18T06:51:40;1.20;;;0.60;;
74342;SDS011;62767;50.300;8.070;2023-11-18T06:54:07;1.00;;;0.70;;
74342;SDS011;62767;50.300;8.070;2023-11-18T06:56:36;0.68;;;0.60;;
74342;SDS011;62767;50.300;8.070;2023-11-18T06:59:06;0.95;;;0.85;;
74342;SDS011;62767;50.300;8.070;2023-11-18T07:01:32;0.73;;;0.70;;
74342;SDS011;62767;50.300;8.070;2023-11-18T07:03:59;0.93;;;0.75;;
74342;SDS011;62767;50.300;8.070;2023-11-18T07:06:24;1.20;;;0.80;;
74342;SDS011;62767;50.300;8.070;2023-11-18T07:08:52;1.33;;;0.80;;
74342;SDS011;62767;50.300;8.070;2023-11-18T07:11:20;1.05;;;0.70;;
74342;SDS011;62767;50.300;8.070;2023-11-18T07:13:46;0.95;;;0.65;;
74342;SDS011;62767;50.300;8.070;2023-11-18T07:16:13;1.27;;;0.80;;
74342;SDS011;62767;50.300;8.070;2023-11-18T07:18:39;1.05;;;0.70;;
74342;SDS011;62767;50.300;8.070;2023-11-18T07:21:05;1.08;;;0.85;;
74342;SDS011;62767;50.300;8.070;2023-11-18T07:23:31;0.82;;;0.70;;
74342;SDS011;62767;50.300;8.070;2023-11-18T07:25:57;1.08;;;0.80;;
74342;SDS011;62767;50.300;8.070;2023-11-18T07:28:23;0.93;;;0.70;;
74342;SDS011;62767;50.300;8.070;2023-11-18T07:30:49;1.30;;;0.80;;
74342;SDS011;62767;50.300;8.070;2023-11-18T07:33:15;0.80;;;0.60;;
74342;SDS011;62767;50.300;8.070;2023-11-18T07:35:44;0.70;;;0.60;;
74342;SDS011;62767;50.300;8.070;2023-11-18T07:38:12;1.13;;;0.80;;
74342;SDS011;62767;50.300;8.070;2023-11-18T07:40:38;1.02;;;0.63;;
74342;SDS011;62767;50.300;8.070;2023-11-18T07:43:07;0.55;;;0.52;;
74342;SDS011;62767;50.300;8.070;2023-11-18T07:45:34;0.60;;;0.60;;
74342;SDS011;62767;50.300;8.070;2023-11-18T07:48:06;1.00;;;0.68;;
74342;SDS011;62767;50.300;8.070;2023-11-18T07:50:35;0.82;;;0.80;;
74342;SDS011;62767;50.300;8.070;2023-11-18T07:53:01;0.90;;;0.60;;
74342;SDS011;62767;50.300;8.070;2023-11-18T07:55:28;1.17;;;0.75;;
74342;SDS011;62767;50.300;8.070;2023-11-18T07:57:54;1.00;;;0.70;;
74342;SDS011;62767;50.300;8.070;2023-11-18T08:00:20;1.17;;;0.63;;
74342;SDS011;62767;50.300;8.070;2023-11-18T08:02:46;1.15;;;0.80;;
74342;SDS011;62767;50.300;8.070;2023-11-18T08:05:12;0.85;;;0.70;;
74342;SDS011;62767;50.300;8.070;2023-11-18T08:07:40;0.60;;;0.60;;
74342;SDS011;62767;50.300;8.070;2023-11-18T08:10:09;0.70;;;0.50;;
74342;SDS011;62767;50.300;8.070;2023-11-18T08:12:38;1.15;;;0.80;;
74342;SDS011;62767;50.300;8.070;2023-11-18T08:15:05;1.08;;;0.80;;
74342;SDS011;62767;50.300;8.070;2023-11-18T08:17:35;1.30;;;0.77;;
74342;SDS011;62767;50.300;8.070;2023-11-18T08:20:01;0.60;;;0.60;;
74342;SDS011;62767;50.300;8.070;2023-11-18T08:22:32;1.17;;;0.82;;
74342;SDS011;62767;50.300;8.070;2023-11-18T08:24:57;0.70;;;0.70;;
74342;SDS011;62767;50.300;8.070;2023-11-18T08:27:24;1.10;;;0.70;;
74342;SDS011;62767;50.300;8.070;2023-11-18T08:29:50;1.20;;;0.80;;
74342;SDS011;62767;50.300;8.070;2023-11-18T08:32:15;1.08;;;0.80;;
74342;SDS011;62767;50.300;8.070;2023-11-18T08:34:41;0.70;;;0.70;;
74342;SDS011;62767;50.300;8.070;2023-11-18T08:37:06;1.83;;;0.88;;
74342;SDS011;62767;50.300;8.070;2023-11-18T08:39:32;1.02;;;0.82;;
74342;SDS011;62767;50.300;8.070;2023-11-18T08:41:58;1.38;;;0.80;;
74342;SDS011;62767;50.300;8.070;2023-11-18T08:44:24;0.93;;;0.80;;
74342;SDS011;62767;50.300;8.070;2023-11-18T08:46:52;0.80;;;0.70;;
74342;SDS011;62767;50.300;8.070;2023-11-18T08:49:19;1.02;;;0.70;;
74342;SDS011;62767;50.300;8.070;2023-11-18T08:51:50;0.82;;;0.80;;
74342;SDS011;62767;50.300;8.070;2023-11-18T08:54:21;1.10;;;0.85;;
74342;SDS011;62767;50.300;8.070;2023-11-18T08:56:53;1.13;;;0.90;;
74342;SDS011;62767;50.300;8.070;2023-11-18T08:59:20;1.13;;;0.88;;
74342;SDS011;62767;50.300;8.070;2023-11-18T09:01:52;1.25;;;0.75;;
74342;SDS011;62767;50.300;8.070;2023-11-18T09:04:24;1.17;;;0.70;;
74342;SDS011;62767;50.300;8.070;2023-11-18T09:06:51;1.35;;;0.70;;
74342;SDS011;62767;50.300;8.070;2023-11-18T09:09:22;0.95;;;0.68;;
74342;SDS011;62767;50.300;8.070;2023-11-18T09:11:54;1.52;;;0.90;;
74342;SDS011;62767;50.300;8.070;2023-11-18T09:14:24;1.63;;;0.88;;
74342;SDS011;62767;50.300;8.070;2023-11-18T09:16:51;1.20;;;0.80;;
74342;SDS011;62767;50.300;8.070;2023-11-18T09:19:17;1.42;;;0.80;;
74342;SDS011;62767;50.300;8.070;2023-11-18T09:21:46;1.00;;;0.80;;
74342;SDS011;62767;50.300;8.070;2023-11-18T09:24:14;1.10;;;0.80;;
74342;SDS011;62767;50.300;8.070;2023-11-18T09:26:43;2.20;;;1.00;;
74342;SDS011;62767;50.300;8.070;2023-11-18T09:29:21;1.80;;;1.00;;
74342;SDS011;62767;50.300;8.070;2023-11-18T09:31:49;1.20;;;0.90;;
74342;SDS011;62767;50.300;8.070;2023-11-18T09:34:17;1.90;;;0.80;;
74342;SDS011;62767;50.300;8.070;2023-11-18T09:36:52;2.38;;;0.80;;
74342;SDS011;62767;50.300;8.070;2023-11-18T09:39:19;0.88;;;0.80;;
74342;SDS011;62767;50.300;8.070;2023-11-18T09:42:06;1.48;;;0.95;;
74342;SDS011;62767;50.300;8.070;2023-11-18T09:44:38;2.40;;;1.10;;
74342;SDS011;62767;50.300;8.070;2023-11-18T09:47:06;1.88;;;1.00;;
74342;SDS011;62767;50.300;8.070;2023-11-18T09:49:38;1.13;;;0.77;;
74342;SDS011;62767;50.300;8.070;2023-11-18T09:52:06;1.13;;;0.90;;
74342;SDS011;62767;50.300;8.070;2023-11-18T10:00:04;1.10;;;0.80;;
74342;SDS011;62767;50.300;8.070;2023-11-18T10:02:48;1.45;;;0.90;;
74342;SDS011;62767;50.300;8.070;2023-11-18T10:05:16;1.30;;;0.90;;
74342;SDS011;62767;50.300;8.070;2023-11-18T10:07:49;1.98;;;0.88;;
74342;SDS011;62767;50.300;8.070;2023-11-18T10:10:15;1.63;;;1.05;;
74342;SDS011;62767;50.300;8.070;2023-11-18T10:12:45;0.93;;;0.80;;
74342;SDS011;62767;50.300;8.070;2023-11-18T10:15:17;1.02;;;0.80;;
74342;SDS011;62767;50.300;8.070;2023-11-18T10:17:48;1.02;;;0.90;;
74342;SDS011;62767;50.300;8.070;2023-11-18T10:23:07;2.03;;;1.05;;
74342;SDS011;62767;50.300;8.070;2023-11-18T10:25:36;1.60;;;0.90;;
74342;SDS011;62767;50.300;8.070;2023-11-18T10:30:56;1.60;;;1.00;;
74342;SDS011;62767;50.300;8.070;2023-11-18T10:33:24;1.50;;;1.08;;
74342;SDS011;62767;50.300;8.070;2023-11-18T10:35:56;1.17;;;0.85;;
74342;SDS011;62767;50.300;8.070;2023-11-18T10:38:22;1.77;;;1.10;;
74342;SDS011;62767;50.300;8.070;2023-11-18T10:40:54;2.20;;;0.93;;
74342;SDS011;62767;50.300;8.070;2023-11-18T10:43:21;1.95;;;0.82;;
74342;SDS011;62767;50.300;8.070;2023-11-18T10:46:12;1.48;;;1.00;;
74342;SDS011;62767;50.300;8.070;2023-11-18T10:48:40;1.55;;;1.00;;
74342;SDS011;62767;50.300;8.070;2023-11-18T10:51:10;1.25;;;0.88;;
74342;SDS011;62767;50.300;8.070;2023-11-18T10:53:37;1.80;;;1.00;;
74342;SDS011;62767;50.300;8.070;2023-11-18T10:56:05;1.67;;;1.00;;
74342;SDS011;62767;50.300;8.070;2023-11-18T10:58:37;2.05;;;1.15;;
74342;SDS011;62767;50.300;8.070;2023-11-18T11:01:06;1.42;;;1.00;;
74342;SDS011;62767;50.300;8.070;2023-11-18T11:03:55;1.52;;;0.90;;
74342;SDS011;62767;50.300;8.070;2023-11-18T11:06:21;2.05;;;1.08;;
74342;SDS011;62767;50.300;8.070;2023-11-18T11:08:49;1.25;;;0.93;;
74342;SDS011;62767;50.300;8.070;2023-11-18T11:11:19;2.08;;;1.20;;
74342;SDS011;62767;50.300;8.070;2023-11-18T11:13:50;1.42;;;0.85;;
74342;SDS011;62767;50.300;8.070;2023-11-18T11:16:21;1.45;;;0.85;;
74342;SDS011;62767;50.300;8.070;2023-11-18T11:18:53;1.10;;;0.80;;
74342;SDS011;62767;50.300;8.070;2023-11-18T11:21:24;1.00;;;0.73;;
74342;SDS011;62767;50.300;8.070;2023-11-18T11:29:27;1.75;;;1.00;;
74342;SDS011;62767;50.300;8.070;2023-11-18T11:32:02;1.67;;;0.88;;
74342;SDS011;62767;50.300;8.070;2023-11-18T11:34:32;1.80;;;1.00;;
74342;SDS011;62767;50.300;8.070;2023-11-18T11:36:59;1.88;;;1.08;;
74342;SDS011;62767;50.300;8.070;2023-11-18T11:39:26;1.63;;;0.90;;
74342;SDS011;62767;50.300;8.070;2023-11-18T11:41:55;1.10;;;0.80;;
74342;SDS011;62767;50.300;8.070;2023-11-18T11:44:22;1.80;;;0.95;;
74342;SDS011;62767;50.300;8.070;2023-11-18T11:46:58;1.58;;;0.90;;
74342;SDS011;62767;50.300;8.070;2023-11-18T11:49:26;1.80;;;0.95;;
74342;SDS011;62767;50.300;8.070;2023-11-18T11:54:25;1.60;;;0.90;;
74342;SDS011;62767;50.300;8.070;2023-11-18T11:56:56;1.40;;;0.90;;
74342;SDS011;62767;50.300;8.070;2023-11-18T11:59:34;1.60;;;1.00;;
74342;SDS011;62767;50.300;8.070;2023-11-18T12:04:49;1.35;;;0.70;;
74342;SDS011;62767;50.300;8.070;2023-11-18T12:07:19;1.85;;;1.10;;
74342;SDS011;62767;50.300;8.070;2023-11-18T12:09:51;1.35;;;0.70;;
74342;SDS011;62767;50.300;8.070;2023-11-18T12:12:23;1.73;;;1.00;;
74342;SDS011;62767;50.300;8.070;2023-11-18T12:14:52;1.23;;;0.95;;
74342;SDS011;62767;50.300;8.070;2023-11-18T12:17:23;1.67;;;1.15;;
74342;SDS011;62767;50.300;8.070;2023-11-18T12:19:54;2.50;;;0.88;;
74342;SDS011;62767;50.300;8.070;2023-11-18T12:22:24;1.17;;;0.80;;
74342;SDS011;62767;50.300;8.070;2023-11-18T12:32:58;1.85;;;1.05;;
74342;SDS011;62767;50.300;8.070;2023-11-18T12:46:49;1.60;;;1.02;;
74342;SDS011;62767;50.300;8.070;2023-11-18T12:49:18;2.38;;;1.20;;
74342;SDS011;62767;50.300;8.070;2023-11-18T12:51:49;2.28;;;1.30;;
74342;SDS011;62767;50.300;8.070;2023-11-18T12:54:17;2.03;;;1.00;;
74342;SDS011;62767;50.300;8.070;2023-11-18T12:56:44;1.50;;;0.80;;
74342;SDS011;62767;50.300;8.070;2023-11-18T12:59:14;1.98;;;1.10;;
74342;SDS011;62767;50.300;8.070;2023-11-18T13:01:43;1.85;;;1.08;;
74342;SDS011;62767;50.300;8.070;2023-11-18T13:04:17;1.75;;;1.10;;
74342;SDS011;62767;50.300;8.070;2023-11-18T13:06:45;1.75;;;0.98;;
74342;SDS011;62767;50.300;8.070;2023-11-18T13:09:11;2.50;;;1.75;;
74342;SDS011;62767;50.300;8.070;2023-11-18T13:11:53;1.73;;;0.93;;
74342;SDS011;62767;50.300;8.070;2023-11-18T13:14:24;1.77;;;1.10;;
74342;SDS011;62767;50.300;8.070;2023-11-18T13:16:53;1.52;;;1.02;;
74342;SDS011;62767;50.300;8.070;2023-11-18T13:19:28;1.85;;;1.05;;
74342;SDS011;62767;50.300;8.070;2023-11-18T13:21:58;1.60;;;1.00;;
74342;SDS011;62767;50.300;8.070;2023-11-18T13:24:25;2.08;;;1.00;;
74342;SDS011;62767;50.300;8.070;2023-11-18T13:26:54;1.73;;;1.00;;
74342;SDS011;62767;50.300;8.070;2023-11-18T13:29:25;1.40;;;0.88;;
74342;SDS011;62767;50.300;8.070;2023-11-18T13:31:51;1.85;;;0.93;;
74342;SDS011;62767;50.300;8.070;2023-11-18T13:34:19;1.77;;;0.98;;
74342;SDS011;62767;50.300;8.070;2023-11-18T13:36:46;1.45;;;0.90;;
74342;SDS011;62767;50.300;8.070;2023-11-18T13:39:19;1.38;;;0.98;;
74342;SDS011;62767;50.300;8.070;2023-11-18T13:41:49;1.70;;;1.08;;
74342;SDS011;62767;50.300;8.070;2023-11-18T13:47:21;1.35;;;1.00;;
74342;SDS011;62767;50.300;8.070;2023-11-18T13:49:53;1.70;;;0.90;;
74342;SDS011;62767;50.300;8.070;2023-11-18T13:52:19;2.22;;;1.00;;
74342;SDS011;62767;50.300;8.070;2023-11-18T13:54:49;1.58;;;1.00;;
74342;SDS011;62767;50.300;8.070;2023-11-18T13:57:20;2.35;;;1.10;;
74342;SDS011;62767;50.300;8.070;2023-11-18T13:59:50;1.92;;;1.02;;
74342;SDS011;62767;50.300;8.070;2023-11-18T14:02:16;2.25;;;1.05;;
74342;SDS011;62767;50.300;8.070;2023-11-18T14:04:41;1.55;;;1.00;;
74342;SDS011;62767;50.300;8.070;2023-11-18T14:07:13;2.17;;;1.08;;
74342;SDS011;62767;50.300;8.070;2023-11-18T14:09:41;1.27;;;0.95;;
74342;SDS011;62767;50.300;8.070;2023-11-18T14:12:07;1.88;;;1.10;;
74342;SDS011;62767;50.300;8.070;2023-11-18T14:14:34;0.90;;;0.82;;
74342;SDS011;62767;50.300;8.070;2023-11-18T14:17:00;2.15;;;1.05;;
74342;SDS011;62767;50.300;8.070;2023-11-18T14:19:26;1.75;;;1.02;;
74342;SDS011;62767;50.300;8.070;2023-11-18T14:21:53;1.05;;;0.90;;
74342;SDS011;62767;50.300;8.070;2023-11-18T14:24:19;1.80;;;0.95;;
74342;SDS011;62767;50.300;8.070;2023-11-18T14:26:45;1.75;;;1.00;;
74342;SDS011;62767;50.300;8.070;2023-11-18T14:29:10;1.33;;;0.88;;
74342;SDS011;62767;50.300;8.070;2023-11-18T14:31:39;1.58;;;0.88;;
74342;SDS011;62767;50.300;8.070;2023-11-18T14:34:05;1.40;;;0.85;;
74342;SDS011;62767;50.300;8.070;2023-11-18T14:36:36;2.17;;;1.00;;
74342;SDS011;62767;50.300;8.070;2023-11-18T14:39:02;1.50;;;0.93;;
74342;SDS011;62767;50.300;8.070;2023-11-18T14:41:29;1.13;;;0.77;;
74342;SDS011;62767;50.300;8.070;2023-11-18T14:43:57;0.98;;;0.80;;
74342;SDS011;62767;50.300;8.070;2023-11-18T14:48:49;1.48;;;0.90;;
74342;SDS011;62767;50.300;8.070;2023-11-18T14:51:15;1.08;;;0.80;;
74342;SDS011;62767;50.300;8.070;2023-11-18T14:53:41;1.55;;;0.80;;
74342;SDS011;62767;50.300;8.070;2023-11-18T14:56:08;1.63;;;1.00;;
74342;SDS011;62767;50.300;8.070;2023-11-18T14:58:34;2.08;;;0.90;;
74342;SDS011;62767;50.300;8.070;2023-11-18T15:01:03;1.40;;;0.77;;
74342;SDS011;62767;50.300;8.070;2023-11-18T15:03:32;1.30;;;0.90;;
74342;SDS011;62767;50.300;8.070;2023-11-18T15:05:58;1.40;;;0.80;;
74342;SDS011;62767;50.300;8.070;2023-11-18T15:08:24;2.33;;;0.90;;
74342;SDS011;62767;50.300;8.070;2023-11-18T15:10:50;1.27;;;1.00;;
74342;SDS011;62767;50.300;8.070;2023-11-18T15:13:16;1.27;;;0.98;;
74342;SDS011;62767;50.300;8.070;2023-11-18T15:15:42;1.67;;;1.10;;
74342;SDS011;62767;50.300;8.070;2023-11-18T15:18:12;1.15;;;0.80;;
74342;SDS011;62767;50.300;8.070;2023-11-18T15:20:42;1.23;;;0.70;;
74342;SDS011;62767;50.300;8.070;2023-11-18T15:23:11;1.92;;;1.25;;
74342;SDS011;62767;50.300;8.070;2023-11-18T15:25:37;1.45;;;0.90;;
74342;SDS011;62767;50.300;8.070;2023-11-18T15:28:04;1.85;;;1.08;;
74342;SDS011;62767;50.300;8.070;2023-11-18T15:30:37;2.28;;;1.00;;
74342;SDS011;62767;50.300;8.070;2023-11-18T15:33:04;1.90;;;0.93;;
74342;SDS011;62767;50.300;8.070;2023-11-18T15:35:36;1.38;;;0.88;;
74342;SDS011;62767;50.300;8.070;2023-11-18T15:38:09;1.63;;;0.90;;
74342;SDS011;62767;50.300;8.070;2023-11-18T15:40:41;2.00;;;0.90;;
74342;SDS011;62767;50.300;8.070;2023-11-18T15:43:07;1.70;;;1.00;;
74342;SDS011;62767;50.300;8.070;2023-11-18T15:45:36;1.40;;;0.73;;
74342;SDS011;62767;50.300;8.070;2023-11-18T15:48:03;1.27;;;0.82;;
74342;SDS011;62767;50.300;8.070;2023-11-18T15:50:35;0.75;;;0.60;;
74342;SDS011;62767;50.300;8.070;2023-11-18T15:53:03;1.05;;;0.70;;
74342;SDS011;62767;50.300;8.070;2023-11-18T15:55:31;1.40;;;0.90;;
74342;SDS011;62767;50.300;8.070;2023-11-18T15:57:57;1.58;;;0.80;;